Ali Turuc

Scout - Galatasaray
5 Dez 2027
Sonntag
Verarbeitung

Persönlichkeit

Anpassungsfähigkeit (2) Ehrgeiz (20) Kontroverse (1) Loyalität (17) Druck (19) Professionalität (10) Fairness (2) Temperament (12)

Profil

Trainerstil Demokratisch
Lizenz Kontinentale A
Entschlossenheit 16
Menschenführung 14
Motivation 10
Disziplin 9
Arbeitszufriedenheit
100%
Ermüdung
0%
Rolle Scout
Gehalt 92.7K p/W
Vertrag 14.03.2028

Leistung

Verhalten Gut
Trainingseffektivität
45%
Spielerentwicklung
70%
Verletzungsprävention
30%
Taktische Umsetzung
45%

Letzte Ereignisse

Spieler begutachtet jetzt
Nahm an einer Scouting-Besprechung teil jetzt
Empfahl ein Transferziel jetzt
Nahm an einer Scouting-Besprechung teil jetzt
Empfahl ein Transferziel jetzt
Nahm an einer Scouting-Besprechung teil jetzt
Spieler begutachtet jetzt
Spieler begutachtet 7T her

Aktuell beobachtet

234
Spieler Verein Status Fähigkeit Vertrauen Beobachtet Zuletzt beobachtet Letzte Stimme
Hugo Ekitiké Liverpool Aktiv 170 / 168 40% 6 03.12.2027 -
Florian Wirtz Liverpool Aktiv 178 / 178 40% 4 03.12.2027 -
Morgan Gibbs-White Nottingham Forest Aktiv 158 / 154 40% 2 03.12.2027 -
Noni Madueke Arsenal Aktiv 159 / 166 40% 3 02.12.2027 -
Declan Rice Arsenal Aktiv 187 / 180 40% 5 02.12.2027 -
Adam Wharton Crystal Palace Aktiv 160 / 157 40% 15 01.12.2027 -
Matthijs de Ligt Manchester United Aktiv 166 / 162 40% 5 01.12.2027 -
Xaver Schlager Nottingham Forest Aktiv 154 / 150 40% 3 01.12.2027 -
Kenan Yıldız Juventus Aktiv 166 / 161 40% 8 29.11.2027 -
Savinho Watford Aktiv 160 / 156 40% 6 29.11.2027 -
Mason Mount Manchester United Aktiv 163 / 155 40% 3 29.11.2027 -
Guglielmo Vicario Tottenham Aktiv 154 / 154 40% 5 28.11.2027 -
Filip Jörgensen Chelsea Aktiv 156 / 160 40% 6 28.11.2027 -
Robert Sánchez Chelsea Aktiv 156 / 164 40% 3 28.11.2027 -
Youri Tielemans Manchester United Aktiv 169 / 171 40% 5 27.11.2027 -
Bradley Barcola Liverpool Aktiv 162 / 169 40% 4 27.11.2027 -
Orkun Kökçü Sunderland Aktiv 154 / 153 40% 1 27.11.2027 -
Justin Bijlow Genoa Aktiv 152 / 149 40% 4 26.11.2027 -
Mark Travers Everton Aktiv 147 / 141 40% 2 26.11.2027 -
Tino Livramento Newcastle United Aktiv 166 / 161 40% 10 25.11.2027 -
Bart Verbruggen Newcastle United Aktiv 159 / 165 40% 9 25.11.2027 -
Elia Caprile Cagliari Aktiv 149 / 152 40% 7 25.11.2027 -
Nico González Manchester United Aktiv 168 / 162 40% 3 25.11.2027 -
Reece James Chelsea Aktiv 177 / 181 40% 3 25.11.2027 -
Radek Vítek Middlesbrough Aktiv 148 / 152 40% 2 25.11.2027 -
Gabriel Martinelli Arsenal Aktiv 163 / 165 40% 4 24.11.2027 -
Nathan Collins Brentford Aktiv 149 / 149 40% 1 23.11.2027 -
Bruno Guimarães Arsenal Aktiv 169 / 166 40% 7 22.11.2027 -
Xavi Simons Tottenham Aktiv 163 / 163 40% 8 22.11.2027 -
Boubacar Kamara Aston Villa Aktiv 167 / 164 40% 3 22.11.2027 -
Cole Palmer Chelsea Aktiv 178 / 183 40% 6 21.11.2027 -
Brais Méndez Columbus Crew Aktiv 149 / 153 40% 5 21.11.2027 -
Malick Fofana Sunderland Aktiv 154 / 155 40% 1 21.11.2027 -
Anton Stach Leeds United Aktiv 151 / 147 40% 2 20.11.2027 -
Ryan Gravenberch Liverpool Aktiv 166 / 163 40% 6 17.11.2027 -
Lukáš Horníček Liverpool Aktiv 150 / 147 40% 5 17.11.2027 -
Sandro Tonali Tottenham Aktiv 175 / 175 40% 4 17.11.2027 -
Iliman N'Diaye Derby County Aktiv 162 / 159 40% 3 13.11.2027 -
Leon Goretzka Aston Villa Aktiv 161 / 154 40% 5 13.11.2027 -
João Pedro Chelsea Aktiv 162 / 161 40% 3 13.11.2027 -
Alexis Mac Allister Liverpool Aktiv 168 / 172 40% 4 11.11.2027 -
Senne Lammens AS Roma Aktiv 162 / 166 40% 5 10.11.2027 -
Marvin Keller Tottenham Aktiv 145 / 153 40% 3 09.11.2027 -
Caoimhin Kelleher Brentford Aktiv 160 / 155 40% 5 09.11.2027 -
Michele Di Gregorio Juventus Aktiv 154 / 154 40% 4 08.11.2027 -
Christos Mandas Lazio Aktiv 145 / 141 40% 2 08.11.2027 -
Vanja Milinković-Savić Napoli Aktiv 152 / 153 40% 1 08.11.2027 -
Enzo Fernández Manchester City Aktiv 176 / 176 40% 3 06.11.2027 -
Mauro Arambarri River Plate Aktiv 152 / 155 40% 4 06.11.2027 -
Alexander Isak Liverpool Aktiv 181 / 178 40% 6 06.11.2027 -
David Raya Arsenal Aktiv 166 / 167 40% 5 05.11.2027 -
Jakub Stolarczyk Notts County Aktiv 148 / 139 40% 2 05.11.2027 -
Maduka Okoye Udinese Aktiv 142 / 145 40% 2 05.11.2027 -
Kevin Fulham Aktiv 158 / 155 40% 9 04.11.2027 -
Gianluigi Donnarumma Inter Aktiv 176 / 174 40% 4 04.11.2027 -
Carl Rushworth Sunderland Aktiv 150 / 147 40% 3 04.11.2027 -
Rayan Cherki Manchester City Aktiv 170 / 162 40% 6 04.11.2027 -
Dean Henderson Crystal Palace Aktiv 158 / 156 40% 6 02.11.2027 -
Stanislav Agkatsev CSKA Moscow Aktiv 145 / 153 40% 3 02.11.2027 -
Mohammed Kudus Tottenham Aktiv 165 / 164 40% 1 01.11.2027 -
Murillo Nottingham Forest Aktiv 157 / 154 40% 10 30.10.2027 -
Jan Paul van Hecke Tottenham Aktiv 166 / 167 40% 10 30.10.2027 -
Óscar Mingueza Crystal Palace Aktiv 157 / 153 40% 3 30.10.2027 -
Alejandro Balde Barcelona Aktiv 164 / 166 40% 2 28.10.2027 -
Ferdi Kadıoğlu Stoke City Aktiv 152 / 147 40% 7 27.10.2027 -
Phil Foden Manchester City Aktiv 179 / 174 40% 4 26.10.2027 -
Quinten Timber Crystal Palace Aktiv 158 / 153 40% 10 25.10.2027 -
Kevin Schade Brentford Aktiv 154 / 156 40% 2 25.10.2027 -
Lewis Hall Newcastle United Aktiv 150 / 162 40% 1 25.10.2027 -
Matheus Cunha Manchester United Aktiv 160 / 168 40% 2 23.10.2027 -
Moisés Caicedo Chelsea Aktiv 170 / 175 40% 4 19.10.2027 -
Zion Suzuki Aston Villa Aktiv 147 / 156 40% 4 17.10.2027 -
Roméo Lavia Chelsea Aktiv 152 / 161 40% 8 14.10.2027 -
Mikel Merino Hull City Aktiv 161 / 153 40% 3 14.10.2027 -
Matheus Nunes Manchester City Aktiv 161 / 166 40% 1 14.10.2027 -
Anatolii Trubin Aston Villa Aktiv 157 / 162 40% 1 10.10.2027 -
Amad Manchester United Aktiv 162 / 161 40% 6 08.10.2027 -
Mads Hermansen West Ham United Aktiv 147 / 140 40% 2 07.10.2027 -
Jérémy Doku Manchester City Aktiv 172 / 177 40% 3 07.10.2027 -
Martin Ødegaard Arsenal Aktiv 182 / 178 40% 1 07.10.2027 -
Dejan Kulusevski Tottenham Aktiv 169 / 176 40% 1 07.10.2027 -
Giorgi Mamardashvili Manchester City Aktiv 164 / 169 40% 6 05.10.2027 -
Jean Butez Hellas Verona Aktiv 144 / 151 40% 3 05.10.2027 -
Micky van de Ven Tottenham Aktiv 165 / 159 40% 1 03.10.2027 -
Lucas Perri Leeds United Aktiv 145 / 143 40% 1 30.09.2027 -
Ismaïla Sarr Crystal Palace Aktiv 151 / 155 40% 1 29.09.2027 -
Exequiel Palacios Ipswich Town Aktiv 162 / 159 40% 4 26.09.2027 -
Bukayo Saka Arsenal Aktiv 184 / 190 40% 1 26.09.2027 -
Matteo Ruggeri Derby County Aktiv 156 / 160 40% 1 26.09.2027 -
Martín Zubimendi Arsenal Aktiv 170 / 168 40% 3 24.09.2027 -
Ian Maatsen Aston Villa Aktiv 156 / 156 40% 5 21.09.2027 -
Conor Bradley Bristol City Aktiv 160 / 156 40% 1 12.09.2027 -
Morgan Rogers Chelsea Aktiv 159 / 161 40% 1 12.09.2027 -
Đorđe Petrović Arsenal Aktiv 157 / 157 40% 4 11.09.2027 -
Federico Chiesa Liverpool Aktiv 161 / 156 40% 1 11.09.2027 -
Omar Alderete Sheffield United Aktiv 157 / 149 40% 1 10.09.2027 -
Jeremie Frimpong Liverpool Aktiv 164 / 158 40% 1 10.09.2027 -
Antonín Kinský Wolverhampton Aktiv 146 / 147 40% 2 09.09.2027 -
Marc Guéhi Manchester City Aktiv 174 / 166 40% 1 05.09.2027 -
Gabriel Arsenal Aktiv 175 / 178 40% 1 05.09.2027 -
Joelinton Newcastle United Aktiv 156 / 158 40% 1 01.09.2027 -
Diogo Costa Inter Aktiv 172 / 174 40% 1 28.08.2027 -
Diego Conde Villarreal Aktiv 147 / 148 40% 3 26.08.2027 -
Ritsu Doan Gamba Osaka Aktiv 146 / 153 40% 2 25.08.2027 -
Mauro Arambarri River Plate Verloren 149 / 158 40% 1 25.08.2027 -
Francisco Conceição Juventus Aktiv 158 / 167 40% 6 19.08.2027 -
Giacomo Raspadori Atalanta Aktiv 156 / 145 40% 11 19.08.2027 -
Manuel Locatelli Juventus Aktiv 160 / 156 40% 3 16.08.2027 -
Dodo Fiorentina Aktiv 154 / 152 40% 1 16.08.2027 -
Carlos Augusto Inter Aktiv 155 / 153 40% 1 16.08.2027 -
James Trafford Leeds United Aktiv 152 / 154 40% 3 11.08.2027 -
Nicolò Rovella Lazio Aktiv 159 / 161 40% 2 10.08.2027 -
Trevoh Chalobah Como Aktiv 155 / 151 40% 2 10.08.2027 -
James Garner Everton Aktiv 154 / 149 40% 3 09.08.2027 -
Alex Meret Napoli Aktiv 159 / 163 40% 1 03.08.2027 -
Donyell Malen AS Roma Aktiv 154 / 150 40% 11 27.07.2027 -
Arijanet Murić Sassuolo Aktiv 144 / 141 40% 2 24.07.2027 -
Khéphren Thuram Juventus Aktiv 161 / 160 40% 7 21.07.2027 -
Mario Pašalić Atalanta Verloren 155 / 150 40% 1 21.07.2027 -
Fabián Manchester City Aktiv 163 / 166 40% 1 21.07.2027 -
Matías Soulé AS Roma Aktiv 161 / 163 40% 2 20.07.2027 -
Dan Ndoye Nottingham Forest Aktiv 155 / 145 40% 1 20.07.2027 -
Mattia Zaccagni Lazio Verloren 156 / 150 40% 2 19.07.2027 -
Curtis Jones Inter Aktiv 159 / 155 40% 9 17.07.2027 -
Kobbie Mainoo Manchester United Aktiv 159 / 162 40% 2 17.07.2027 -
Mario Pašalić Atalanta Verloren 153 / 154 40% 1 17.07.2027 -
Kaoru Mitoma Brighton Aktiv 159 / 156 40% 3 16.07.2027 -
Nicolò Barella Inter Aktiv 167 / 170 40% 2 14.07.2027 -
Sven Botman Newcastle United Aktiv 158 / 164 40% 2 13.07.2027 -
Alex Scott Bournemouth Aktiv 154 / 159 40% 14 10.07.2027 -
Aaron Ramsdale Southampton Aktiv 146 / 142 40% 1 08.07.2027 -
Antonee Robinson Fulham Aktiv 154 / 153 40% 1 06.07.2027 -
Kepa Arrizabalaga Arsenal Aktiv 151 / 146 40% 1 30.06.2027 -
Adrien Rabiot AC Milan Aktiv 159 / 153 40% 1 21.06.2027 -
Leon Goretzka Aston Villa Verloren 159 / 150 40% 1 21.06.2027 -
Muhammed Şengezer Basaksehir Aktiv 135 / 136 79% 1 14.06.2027 Befürworten
David Neres Napoli Aktiv 160 / 151 40% 1 14.06.2027 -
Abbosbek Fayzullayev Basaksehir Aktiv 129 / 130 79% 1 02.06.2027 Befürworten
Manuel Akanji Inter Aktiv 153 / 151 40% 1 01.06.2027 -
Éderson Atalanta Aktiv 159 / 158 40% 2 31.05.2027 -
Dango Ouattara Brentford Aktiv 148 / 144 40% 10 30.05.2027 -
Randal Kolo Muani Juventus Aktiv 154 / 153 40% 7 30.05.2027 -
Joshua Zirkzee Manchester United Aktiv 149 / 152 40% 1 30.05.2027 -
Dominic Calvert-Lewin Leeds United Aktiv 139 / 138 40% 6 29.05.2027 -
Evanilson Bournemouth Aktiv 149 / 143 40% 4 29.05.2027 -
Andrea Cambiaso Juventus Aktiv 154 / 150 40% 2 27.05.2027 -
Yehor Yarmoliuk Brentford Aktiv 148 / 158 40% 3 26.05.2027 -
Noah Sadiki Sunderland Aktiv 142 / 148 40% 3 26.05.2027 -
Charles De Ketelaere Atalanta Aktiv 157 / 158 40% 8 26.05.2027 -
Jarrod Bowen West Ham United Abgelehnt 155 / 145 40% 4 26.05.2027 -
Wagner Pina Trabzonspor Aktiv 132 / 121 40% 3 26.05.2027 Beobachten
Wesley Fofana Chelsea Aktiv 166 / 158 40% 3 25.05.2027 -
Maxence Lacroix Chelsea Aktiv 150 / 148 40% 2 23.05.2027 -
Michael Kayode Brentford Aktiv 146 / 158 40% 3 21.05.2027 -
Tim Iroegbunam Hull City Aktiv 135 / 140 40% 3 21.05.2027 -
Victor Kristiansen Leicester City Aktiv 126 / 123 40% 1 21.05.2027 -
Brennan Johnson Everton Aktiv 148 / 140 40% 4 20.05.2027 -
Mathys Tel Tottenham Aktiv 143 / 142 40% 1 17.05.2027 -
Raoul Bellanova Atalanta Aktiv 147 / 148 40% 2 16.05.2027 -
Brooke Norton-Cuffy Hull City Aktiv 141 / 140 40% 3 15.05.2027 -
Youri Baas Bournemouth Aktiv 145 / 151 40% 3 15.05.2027 -
Tammy Abraham Aston Villa Aktiv 145 / 135 40% 3 13.05.2027 -
Youssef En-Nesyri Al-Ittihad Aktiv 137 / 130 40% 3 13.05.2027 -
Julián Quiñones Al-Qadisiyah Verloren 141 / 153 40% 9 12.05.2027 -
Liam Delap Nottingham Forest Aktiv 147 / 139 40% 13 09.05.2027 -
Nicolas Jackson Aston Villa Aktiv 151 / 147 40% 5 08.05.2027 Beobachten
Taty Castellanos West Ham United Aktiv 147 / 152 40% 3 08.05.2027 -
Jarrad Branthwaite Everton Aktiv 150 / 159 40% 4 08.05.2027 -
Yasin Ayari Brighton Aktiv 146 / 145 40% 1 07.05.2027 -
Thiago Brentford Aktiv 145 / 147 40% 3 05.05.2027 -
Richarlison Everton Aktiv 146 / 141 40% 7 04.05.2027 -
Nicolò Zaniolo Udinese Aktiv 142 / 134 40% 7 04.05.2027 -
Jorrel Hato Chelsea Aktiv 144 / 160 40% 2 03.05.2027 -
Dominic Solanke Tottenham Aktiv 143 / 142 40% 4 28.04.2027 -
Ivan Toney Brighton Aktiv 154 / 146 40% 2 24.04.2027 -
Ben Nelson Leicester City Aktiv 134 / 138 40% 2 23.04.2027 -
Nico O'Reilly Manchester City Aktiv 154 / 148 40% 1 22.04.2027 -
Aaron Hickey Brentford Aktiv 141 / 152 40% 7 17.04.2027 -
Kristoffer Lund Birmingham Aktiv 130 / 137 40% 2 17.04.2027 -
Gonzalo Fulham Aktiv 145 / 144 40% 10 16.04.2027 -
Jacques Ekomié Wrexham Aktiv 134 / 131 40% 2 13.04.2027 -
Teden Mengi Luton Town Aktiv 126 / 121 40% 2 09.04.2027 -
Benjamin Šeško Manchester United Aktiv 155 / 146 40% 4 03.04.2027 -
Juanlu Bournemouth Aktiv 149 / 141 40% 9 02.04.2027 -
Justin Devenny Stoke City Aktiv 128 / 122 40% 1 02.04.2027 -
Alessandro Buongiorno Udinese Aktiv 154 / 154 40% 4 01.04.2027 -
Ronnie Edwards Queens Park Rangers Aktiv 126 / 131 40% 1 01.04.2027 -
Ousmane Diomande Nottingham Forest Aktiv 152 / 152 40% 3 31.03.2027 -
Gianluca Scamacca Atalanta Aktiv 152 / 151 40% 2 30.03.2027 -
Elliot Anderson Manchester City Aktiv 155 / 160 40% 2 28.03.2027 -
Gonçalo Ramos AC Milan Aktiv 152 / 161 40% 2 25.03.2027 -
Ethan Ampadu Leeds United Aktiv 141 / 136 40% 5 24.03.2027 -
Evan N'Dicka AS Roma Aktiv 153 / 152 40% 1 24.03.2027 -
Jack Hinshelwood Brighton Aktiv 144 / 150 40% 1 21.03.2027 -
Alessandro Bastoni Inter Aktiv 160 / 166 40% 1 15.03.2027 -
Mandla Phiri SuperSport United Aktiv 145 / 135 40% 1 11.03.2027 -
Habib Diarra Sunderland Aktiv 135 / 142 40% 1 07.03.2027 -
Jean-Philippe Mateta Crystal Palace Aktiv 149 / 150 40% 1 19.02.2027 -
Rasmus Højlund Napoli Aktiv 156 / 146 40% 1 08.02.2027 -
Ángel Correa River Plate Aktiv 147 / 135 40% 1 01.02.2027 -
Conor Gallagher Tottenham Aktiv 146 / 146 40% 1 21.01.2027 -
Amadou Onana Aston Villa Aktiv 158 / 154 40% 1 21.01.2027 -
William Saliba Arsenal Aktiv 181 / 181 40% 1 13.01.2027 -
Miloš Kerkez Liverpool Aktiv 157 / 151 40% 1 13.01.2027 -
Carlos Alcaraz Everton Aktiv 147 / 149 40% 2 24.12.2026 -
Ryan Sessegnon Fulham Aktiv 150 / 146 40% 2 17.12.2026 -
Tom Fellows Southampton Aktiv 130 / 139 40% 2 15.12.2026 -
Assane Diao Fiorentina Aktiv 145 / 140 40% 1 08.12.2026 -
Jamie Gittens Newcastle United Aktiv 140 / 146 40% 1 06.12.2026 -
Diogo Dalot Manchester United Aktiv 151 / 143 40% 2 03.12.2026 -
Oleh Ocheretko Shakhtar Aktiv 127 / 131 40% 4 29.11.2026 -
Yankuba Minteh Brighton Aktiv 148 / 152 40% 1 25.11.2026 -
Geovany Quenda Chelsea Aktiv 140 / 144 40% 2 30.10.2026 -
Matías Palacios Al Ain Aktiv 123 / 119 40% 4 26.10.2026 -
Rodrigo Huescas FC Copenhagen Aktiv 125 / 133 40% 3 26.10.2026 -
Pedro Zenit Aktiv 136 / 129 40% 5 23.10.2026 -
Lucas Assadi AIK Aktiv 126 / 122 40% 4 23.10.2026 -
Gustavo Puerta Olympiacos Aktiv 139 / 138 40% 2 20.10.2026 -
Felipe Augusto Zenit Aktiv 136 / 131 40% 2 19.10.2026 -
Karel Spáčil Viktoria Plzen Aktiv 126 / 127 40% 1 19.10.2026 -
Talles Magno New York City Aktiv 121 / 134 40% 2 16.10.2026 -
Ângelo Al-Nassr Aktiv 132 / 147 40% 2 05.10.2026 -
Telasco Segovia Inter Miami CF Aktiv 139 / 119 40% 2 30.09.2026 -
Riku Handa Gamba Osaka Aktiv 129 / 145 40% 1 30.09.2026 -
Roger Fernandes Al-Ittihad Aktiv 141 / 128 40% 3 26.09.2026 -
Mattia Zanotti Young Boys Aktiv 135 / 140 40% 1 26.09.2026 -
Jhon Jhon Zenit Aktiv 128 / 133 40% 2 24.09.2026 -
Samú Al-Nassr Aktiv 139 / 151 40% 2 24.09.2026 -
Alvyn Sanches Young Boys Aktiv 132 / 139 40% 3 22.09.2026 -
Paxten Aaronson Colorado Rapids Aktiv 133 / 150 40% 2 14.09.2026 -
Fredrik Sjøvold Bodo/Glimt Aktiv 125 / 119 40% 2 10.09.2026 -
Haissem Hassan Bloemfontein Celtic Aktiv 131 / 137 40% 1 09.09.2026 -
Gabriel Pirani San Diego Football Club Aktiv 125 / 127 40% 1 05.09.2026 -
Julen Agirrezabala Racing Santander Aktiv 139 / 150 40% 1 01.08.2026 -